Terminal Aerodrome Forecast
Issued by NWS Missoula, MT

Home | Current Version | Previous Version | Text Only | Print | Product List | Glossary On
Versions: 1 2 3 4 5 6 7 8 9 10 11 12 13 14
748
FTUS45 KMSO 092338
TAFBTM
TAF
KBTM 092338Z 1000/1024 VRB05KT P6SM VCSH OVC050
     FM100200 VRB03KT 5SM -SHSN BKN035 OVC050
     FM101200 VRB03KT 3SM -SN BR BKN020 OVC050=

USA.gov is the U.S. government's official web portal to all federal, state and local government web resources and services.